createdAt,value
2023-02-18T00:01:52.699Z,4.01
2023-02-18T00:04:20.876Z,3.94
2023-02-18T00:06:49.396Z,3.84
2023-02-18T00:09:17.712Z,3.81
2023-02-18T00:11:46.517Z,3.76
2023-02-18T00:14:16.732Z,3.70
2023-02-18T00:16:46.073Z,3.66
2023-02-18T00:19:18.117Z,3.61
2023-02-18T00:21:46.430Z,3.55
2023-02-18T00:24:16.565Z,3.48
2023-02-18T00:26:46.037Z,3.43
2023-02-18T00:29:14.928Z,3.33
2023-02-18T00:31:43.845Z,3.27
2023-02-18T00:34:14.030Z,3.22
2023-02-18T00:36:52.070Z,3.17
2023-02-18T00:39:20.503Z,3.14
2023-02-18T00:41:48.936Z,3.10
2023-02-18T00:44:17.678Z,3.08
2023-02-18T00:46:48.418Z,3.03
2023-02-18T00:49:17.865Z,3.04
2023-02-18T00:51:47.685Z,2.97
2023-02-18T00:54:16.209Z,2.95
2023-02-18T00:56:44.488Z,2.93
2023-02-18T00:59:12.961Z,2.88
2023-02-18T01:01:41.441Z,2.85
2023-02-18T01:04:09.782Z,2.80
2023-02-18T01:06:38.058Z,2.76
2023-02-18T01:09:09.246Z,2.71
2023-02-18T01:11:39.074Z,2.68
2023-02-18T01:14:11.192Z,2.65
2023-02-18T01:16:39.418Z,2.61
2023-02-18T01:19:07.700Z,2.57
2023-02-18T01:21:36.539Z,2.60
2023-02-18T01:24:05.170Z,2.60
2023-02-18T01:26:35.705Z,2.62
2023-02-18T01:29:04.087Z,2.64
2023-02-18T01:31:32.372Z,2.67
2023-02-18T01:34:03.515Z,2.74
2023-02-18T01:36:31.895Z,2.78
2023-02-18T01:39:01.508Z,2.84
2023-02-18T01:41:30.632Z,2.92
2023-02-18T01:44:17.778Z,2.99
2023-02-18T01:46:46.142Z,3.04
2023-02-18T01:49:19.447Z,3.12
2023-02-18T01:51:59.330Z,3.18
2023-02-18T01:54:30.790Z,3.22
2023-02-18T01:57:03.823Z,3.32
2023-02-18T01:59:41.211Z,3.38
2023-02-18T02:02:14.292Z,3.40
2023-02-18T02:04:43.146Z,3.47
2023-02-18T02:07:11.871Z,3.51
2023-02-18T02:09:41.654Z,3.56
2023-02-18T02:12:35.024Z,3.59
2023-02-18T02:15:31.004Z,3.63
2023-02-18T02:18:13.708Z,3.67
2023-02-18T02:21:23.861Z,3.70
2023-02-18T02:24:19.540Z,3.72
2023-02-18T02:27:06.871Z,3.76
2023-02-18T02:30:12.686Z,3.77
2023-02-18T02:33:09.875Z,3.74
2023-02-18T02:35:43.785Z,3.75
2023-02-18T02:38:23.277Z,3.79
2023-02-18T02:40:57.694Z,3.80
2023-02-18T02:43:33.008Z,3.82
2023-02-18T02:46:08.065Z,3.84
2023-02-18T02:48:44.237Z,3.85
2023-02-18T02:51:19.329Z,3.87
2023-02-18T02:53:47.978Z,3.89
2023-02-18T02:56:17.654Z,3.92
2023-02-18T02:58:48.586Z,3.94
2023-02-18T03:01:37.282Z,3.96
2023-02-18T03:04:24.505Z,3.92
2023-02-18T03:07:12.602Z,3.96
2023-02-18T03:09:56.008Z,3.90
2023-02-18T03:12:30.811Z,3.98
2023-02-18T03:15:05.605Z,3.94
2023-02-18T03:17:37.495Z,3.98
2023-02-18T03:20:12.005Z,3.93
2023-02-18T03:22:48.792Z,3.96
2023-02-18T03:25:18.376Z,3.98
2023-02-18T03:27:52.320Z,3.99
2023-02-18T03:30:25.883Z,3.96
2023-02-18T03:32:59.395Z,3.98
2023-02-18T03:35:28.737Z,3.99
2023-02-18T03:38:04.137Z,3.98
2023-02-18T03:40:37.413Z,3.97
2023-02-18T03:43:05.890Z,3.96
2023-02-18T03:45:34.358Z,3.97
2023-02-18T03:48:02.881Z,3.98
2023-02-18T03:50:31.318Z,3.99
2023-02-18T03:53:01.073Z,3.97
2023-02-18T03:55:29.841Z,3.97
2023-02-18T03:57:59.607Z,3.97
2023-02-18T04:00:27.925Z,3.97
2023-02-18T04:02:56.515Z,3.99
2023-02-18T04:05:24.765Z,3.99
2023-02-18T04:07:53.117Z,3.99
2023-02-18T04:10:23.528Z,4.00
2023-02-18T04:12:51.748Z,4.00
2023-02-18T04:15:20.649Z,3.98
2023-02-18T04:17:48.890Z,3.92
2023-02-18T04:20:17.552Z,3.94
2023-02-18T04:22:45.847Z,3.91
2023-02-18T04:25:14.215Z,3.90
2023-02-18T04:27:44.478Z,3.87
2023-02-18T04:30:13.978Z,3.85
2023-02-18T04:32:42.366Z,3.86
2023-02-18T04:35:10.656Z,3.83
2023-02-18T04:37:38.902Z,3.80
2023-02-18T04:40:09.306Z,3.80
2023-02-18T04:42:38.422Z,3.77
2023-02-18T04:45:09.549Z,3.73
2023-02-18T04:47:37.861Z,3.72
2023-02-18T04:50:07.150Z,3.70
2023-02-18T04:52:35.557Z,3.69
2023-02-18T04:55:03.876Z,3.67
2023-02-18T04:57:32.155Z,3.64
2023-02-18T05:00:00.857Z,3.63
2023-02-18T05:02:30.546Z,3.61
2023-02-18T05:04:58.781Z,3.59
2023-02-18T05:07:27.009Z,3.56
2023-02-18T05:09:55.436Z,3.58
2023-02-18T05:12:23.780Z,3.55
2023-02-18T05:14:51.949Z,3.53
2023-02-18T05:17:32.410Z,3.51
2023-02-18T05:20:00.733Z,3.45
2023-02-18T05:22:28.978Z,3.43
2023-02-18T05:24:57.386Z,3.43
2023-02-18T05:27:26.136Z,3.40
2023-02-18T05:29:54.408Z,3.37
2023-02-18T05:32:42.385Z,3.34
2023-02-18T05:35:10.726Z,3.33
2023-02-18T05:37:39.278Z,3.27
2023-02-18T05:40:09.794Z,3.27
2023-02-18T05:42:38.530Z,3.26
2023-02-18T05:45:07.177Z,3.22
2023-02-18T05:47:35.600Z,3.24
2023-02-18T05:50:06.380Z,3.20
2023-02-18T05:52:34.613Z,3.22
2023-02-18T05:55:02.913Z,3.20
2023-02-18T05:57:31.159Z,3.17
2023-02-18T06:00:00.275Z,3.15
2023-02-18T06:02:28.724Z,3.17
2023-02-18T06:04:56.917Z,3.16
2023-02-18T06:07:26.950Z,3.15
2023-02-18T06:09:55.223Z,3.13
2023-02-18T06:12:23.676Z,3.12
2023-02-18T06:14:52.382Z,3.11
2023-02-18T06:17:23.532Z,3.09
2023-02-18T06:19:52.269Z,3.08
2023-02-18T06:22:20.909Z,3.07
2023-02-18T06:24:50.729Z,3.07
2023-02-18T06:27:18.905Z,3.05
2023-02-18T06:29:47.547Z,3.05
2023-02-18T06:32:16.030Z,3.01
2023-02-18T06:34:44.413Z,2.98
2023-02-18T06:37:12.623Z,2.98
2023-02-18T06:39:40.953Z,2.98
2023-02-18T06:42:11.009Z,2.94
2023-02-18T06:44:39.286Z,2.98
2023-02-18T06:47:07.697Z,2.99
2023-02-18T06:49:36.530Z,2.99
2023-02-18T06:52:06.229Z,3.02
2023-02-18T06:54:36.287Z,3.04
2023-02-18T06:57:04.483Z,3.03
2023-02-18T06:59:34.294Z,3.06
2023-02-18T07:02:02.521Z,3.06
2023-02-18T07:04:30.747Z,3.10
2023-02-18T07:06:58.934Z,3.12
2023-02-18T07:09:27.240Z,3.15
2023-02-18T07:11:55.453Z,3.20
2023-02-18T07:14:24.586Z,3.23
2023-02-18T07:16:54.705Z,3.23
2023-02-18T07:19:23.166Z,3.21
2023-02-18T07:21:51.363Z,3.24
2023-02-18T07:24:19.977Z,3.26
2023-02-18T07:26:48.165Z,3.26
2023-02-18T07:29:16.575Z,3.29
2023-02-18T07:31:44.845Z,3.30
2023-02-18T07:34:14.838Z,3.31
2023-02-18T07:36:43.117Z,3.35
2023-02-18T07:39:11.333Z,3.38
2023-02-18T07:41:42.555Z,3.39
2023-02-18T07:44:11.277Z,3.45
2023-02-18T07:46:42.174Z,3.49
2023-02-18T07:49:11.803Z,3.53
2023-02-18T07:51:41.544Z,3.56
2023-02-18T07:54:10.198Z,3.60
2023-02-18T07:56:38.631Z,3.64
2023-02-18T07:59:07.189Z,3.68
2023-02-18T08:01:35.514Z,3.70
2023-02-18T08:04:04.142Z,3.76
2023-02-18T08:06:36.668Z,3.75
2023-02-18T08:09:07.557Z,3.81
2023-02-18T08:11:38.249Z,3.86
2023-02-18T08:14:06.681Z,3.89
2023-02-18T08:16:35.664Z,3.92
2023-02-18T08:19:05.097Z,3.96
2023-02-18T08:21:33.775Z,4.01
2023-02-18T08:24:02.049Z,4.03
2023-02-18T08:26:31.873Z,4.06
2023-02-18T08:29:00.143Z,4.11
2023-02-18T08:31:30.979Z,4.15
2023-02-18T08:34:00.714Z,4.19
2023-02-18T08:36:29.432Z,4.23
2023-02-18T08:38:59.883Z,4.26
2023-02-18T08:41:29.026Z,4.28
2023-02-18T08:43:59.766Z,4.30
2023-02-18T08:46:35.171Z,4.34
2023-02-18T08:49:07.178Z,4.38
2023-02-18T08:51:35.895Z,4.42
2023-02-18T08:54:04.225Z,4.44
2023-02-18T08:56:33.677Z,4.48
2023-02-18T08:59:04.303Z,4.55
2023-02-18T09:01:32.911Z,4.56
2023-02-18T09:04:01.770Z,4.58
2023-02-18T09:06:30.061Z,4.62
2023-02-18T09:08:58.946Z,4.64
2023-02-18T09:11:27.283Z,4.68
2023-02-18T09:13:55.597Z,4.74
2023-02-18T09:16:27.105Z,4.79
2023-02-18T09:18:56.025Z,4.80
2023-02-18T09:21:24.789Z,4.87
2023-02-18T09:23:53.173Z,4.92
2023-02-18T09:26:23.209Z,5.00
2023-02-18T09:28:53.474Z,5.04
2023-02-18T09:31:26.690Z,5.07
2023-02-18T09:33:56.849Z,5.11
2023-02-18T09:36:25.820Z,5.11
2023-02-18T09:38:55.256Z,5.12
2023-02-18T09:41:34.987Z,5.17
2023-02-18T09:44:06.758Z,5.16
2023-02-18T09:46:40.762Z,5.26
2023-02-18T09:49:17.089Z,5.30
2023-02-18T09:51:45.924Z,5.33
2023-02-18T09:54:18.048Z,5.40
2023-02-18T09:56:47.956Z,5.45
2023-02-18T09:59:19.876Z,5.48
2023-02-18T10:01:52.322Z,5.48
2023-02-18T10:04:24.039Z,5.47
2023-02-18T10:06:55.273Z,5.49
2023-02-18T10:09:26.843Z,5.51
2023-02-18T10:11:59.434Z,5.52
2023-02-18T10:14:27.937Z,5.55
2023-02-18T10:16:59.847Z,5.58
2023-02-18T10:19:36.112Z,5.62
2023-02-18T10:22:07.076Z,5.67
2023-02-18T10:24:39.842Z,5.69
2023-02-18T10:27:10.346Z,5.72
2023-02-18T10:29:39.085Z,5.74
2023-02-18T10:32:19.242Z,5.76
2023-02-18T10:34:51.276Z,5.81
2023-02-18T10:37:44.135Z,5.82
2023-02-18T10:40:21.244Z,5.85
2023-02-18T10:43:00.609Z,5.82
2023-02-18T10:45:39.614Z,5.86
2023-02-18T10:48:26.847Z,5.88
2023-02-18T10:50:55.273Z,5.90
2023-02-18T10:53:33.923Z,5.91
2023-02-18T10:56:03.023Z,5.91
2023-02-18T10:58:36.661Z,5.93
2023-02-18T11:01:09.043Z,6.00
2023-02-18T11:03:45.038Z,5.98
2023-02-18T11:06:27.216Z,6.01
2023-02-18T11:09:00.176Z,6.00
2023-02-18T11:11:33.152Z,6.10
2023-02-18T11:14:04.493Z,6.12
2023-02-18T11:16:40.809Z,6.13
2023-02-18T11:19:33.842Z,6.17
2023-02-18T11:22:09.999Z,6.19
2023-02-18T11:24:41.691Z,6.25
2023-02-18T11:27:14.674Z,6.27
2023-02-18T11:29:43.078Z,6.27
2023-02-18T11:32:14.020Z,6.27
2023-02-18T11:34:45.868Z,6.31
2023-02-18T11:37:21.107Z,6.31
2023-02-18T11:39:52.804Z,6.31
2023-02-18T11:42:23.971Z,6.37
2023-02-18T11:44:56.191Z,6.37
2023-02-18T11:47:28.877Z,6.38
2023-02-18T11:50:20.300Z,6.43
2023-02-18T11:52:50.394Z,6.46
2023-02-18T11:55:22.166Z,6.50
2023-02-18T11:57:58.140Z,6.49
2023-02-18T12:00:38.162Z,6.48
2023-02-18T12:03:18.271Z,6.50
2023-02-18T12:05:48.314Z,6.50
2023-02-18T12:08:21.797Z,6.51
2023-02-18T12:10:53.186Z,6.48
2023-02-18T12:13:27.794Z,6.41
2023-02-18T12:16:04.763Z,6.41
2023-02-18T12:18:53.449Z,6.39
2023-02-18T12:21:43.999Z,6.36
2023-02-18T12:24:26.919Z,6.34
2023-02-18T12:27:05.596Z,6.33
2023-02-18T12:30:00.364Z,6.31
2023-02-18T12:32:43.387Z,6.31
2023-02-18T12:35:38.446Z,6.31
2023-02-18T12:38:35.735Z,6.37
2023-02-18T12:41:24.041Z,6.33
2023-02-18T12:44:02.708Z,6.33
2023-02-18T12:46:57.399Z,6.34
2023-02-18T12:49:46.868Z,6.35
2023-02-18T12:52:26.740Z,6.35
2023-02-18T12:55:29.524Z,6.34
2023-02-18T12:58:07.408Z,6.37
2023-02-18T13:00:56.025Z,6.37
2023-02-18T13:04:06.278Z,6.38
2023-02-18T13:06:49.322Z,6.37
2023-02-18T13:09:34.469Z,6.38
2023-02-18T13:12:12.452Z,6.38
2023-02-18T13:14:49.759Z,6.36
2023-02-18T13:17:20.207Z,6.33
2023-02-18T13:19:53.198Z,6.34
2023-02-18T13:22:24.536Z,6.35
2023-02-18T13:24:56.918Z,6.40
2023-02-18T13:27:33.093Z,6.37
2023-02-18T13:30:18.328Z,6.39
2023-02-18T13:32:55.436Z,6.42
2023-02-18T13:35:29.187Z,6.41
2023-02-18T13:38:14.023Z,6.38
2023-02-18T13:40:45.404Z,6.44
2023-02-18T13:43:30.066Z,6.43
2023-02-18T13:46:12.032Z,6.42
2023-02-18T13:48:46.354Z,6.43
2023-02-18T13:51:16.666Z,6.43
2023-02-18T13:53:50.990Z,6.41
2023-02-18T13:56:28.574Z,6.36
2023-02-18T13:59:04.237Z,6.36
2023-02-18T14:01:42.332Z,6.38
2023-02-18T14:04:36.215Z,6.40
2023-02-18T14:07:39.791Z,6.40
2023-02-18T14:10:26.333Z,6.42
2023-02-18T14:13:25.571Z,6.37
2023-02-18T14:16:02.203Z,6.35
2023-02-18T14:18:56.189Z,6.33
2023-02-18T14:21:39.067Z,6.30
2023-02-18T14:24:09.208Z,6.27
2023-02-18T14:26:41.315Z,6.25
2023-02-18T14:29:18.805Z,6.26
2023-02-18T14:31:55.667Z,6.27
2023-02-18T14:35:05.245Z,6.24
2023-02-18T14:38:00.449Z,6.21
2023-02-18T14:40:47.418Z,6.18
2023-02-18T14:43:31.996Z,6.11
2023-02-18T14:46:26.055Z,6.05
2023-02-18T14:49:13.729Z,5.99
2023-02-18T14:51:44.045Z,5.96
2023-02-18T14:54:17.238Z,5.92
2023-02-18T14:56:57.022Z,5.88
2023-02-18T14:59:29.130Z,5.84
2023-02-18T15:01:58.658Z,5.80
2023-02-18T15:04:28.718Z,5.73
2023-02-18T15:07:01.953Z,5.67
2023-02-18T15:09:34.613Z,5.62
2023-02-18T15:12:06.139Z,5.56
2023-02-18T15:14:37.931Z,5.47
2023-02-18T15:17:08.575Z,5.42
2023-02-18T15:19:43.850Z,5.33
2023-02-18T15:22:19.241Z,5.27
2023-02-18T15:24:47.782Z,5.24
2023-02-18T15:27:18.228Z,5.15
2023-02-18T15:29:51.000Z,5.14
2023-02-18T15:32:21.907Z,5.09
2023-02-18T15:34:55.262Z,5.00
2023-02-18T15:37:24.054Z,4.95
2023-02-18T15:39:53.851Z,4.93
2023-02-18T15:42:28.261Z,4.87
2023-02-18T15:44:58.827Z,4.81
2023-02-18T15:47:27.364Z,4.75
2023-02-18T15:50:02.518Z,4.70
2023-02-18T15:52:34.423Z,4.64
2023-02-18T15:55:06.139Z,4.57
2023-02-18T15:57:38.744Z,4.50
2023-02-18T16:00:16.236Z,4.44
2023-02-18T16:02:56.410Z,4.38
2023-02-18T16:05:32.331Z,4.32
2023-02-18T16:08:02.971Z,4.22
2023-02-18T16:10:50.184Z,4.19
2023-02-18T16:13:20.206Z,4.14
2023-02-18T16:15:52.053Z,4.07
2023-02-18T16:18:27.731Z,4.05
2023-02-18T16:21:01.600Z,3.99
2023-02-18T16:23:37.543Z,3.94
2023-02-18T16:26:23.474Z,3.84
2023-02-18T16:28:55.832Z,3.83
2023-02-18T16:31:24.333Z,3.80
2023-02-18T16:33:52.897Z,3.77
2023-02-18T16:36:25.571Z,3.74
2023-02-18T16:38:55.086Z,3.70
2023-02-18T16:41:23.383Z,3.65
2023-02-18T16:43:54.404Z,3.65
2023-02-18T16:46:24.352Z,3.62
2023-02-18T16:48:55.930Z,3.57
2023-02-18T16:51:31.119Z,3.53
2023-02-18T16:53:59.404Z,3.51
2023-02-18T16:56:29.753Z,3.47
2023-02-18T16:58:58.156Z,3.44
2023-02-18T17:01:30.735Z,3.39
2023-02-18T17:04:00.906Z,3.39
2023-02-18T17:06:30.976Z,3.33
2023-02-18T17:08:59.995Z,3.34
2023-02-18T17:11:31.532Z,3.31
2023-02-18T17:14:00.558Z,3.31
2023-02-18T17:16:29.130Z,3.28
2023-02-18T17:18:57.476Z,3.26
2023-02-18T17:21:27.498Z,3.24
2023-02-18T17:23:57.077Z,3.19
2023-02-18T17:26:27.528Z,3.18
2023-02-18T17:28:57.740Z,3.13
2023-02-18T17:31:29.045Z,3.08
2023-02-18T17:34:00.345Z,3.07
2023-02-18T17:36:28.831Z,3.05
2023-02-18T17:39:00.409Z,3.03
2023-02-18T17:41:31.367Z,3.00
2023-02-18T17:44:02.598Z,2.95
2023-02-18T17:46:30.773Z,2.92
2023-02-18T17:48:59.186Z,2.96
2023-02-18T17:51:29.945Z,2.91
2023-02-18T17:53:59.695Z,2.93
2023-02-18T17:56:28.332Z,2.89
2023-02-18T17:58:57.231Z,2.89
2023-02-18T18:01:25.506Z,2.88
2023-02-18T18:03:54.135Z,2.86
2023-02-18T18:06:26.441Z,2.85
2023-02-18T18:08:55.242Z,2.85
2023-02-18T18:11:26.240Z,2.85
2023-02-18T18:13:54.635Z,2.81
2023-02-18T18:16:23.166Z,2.79
2023-02-18T18:18:51.566Z,2.78
2023-02-18T18:21:23.221Z,2.74
2023-02-18T18:23:52.428Z,2.72
2023-02-18T18:26:21.059Z,2.70
2023-02-18T18:28:51.024Z,2.68
2023-02-18T18:31:21.261Z,2.64
2023-02-18T18:34:10.960Z,2.61
2023-02-18T18:36:39.548Z,2.58
2023-02-18T18:39:08.376Z,2.56
2023-02-18T18:41:38.490Z,2.53
2023-02-18T18:44:08.703Z,2.53
2023-02-18T18:46:36.985Z,2.51
2023-02-18T18:49:08.680Z,2.48
2023-02-18T18:51:37.535Z,2.46
2023-02-18T18:54:06.311Z,2.43
2023-02-18T18:56:34.779Z,2.41
2023-02-18T18:59:04.156Z,2.37
2023-02-18T19:01:34.552Z,2.32
2023-02-18T19:04:11.789Z,2.25
2023-02-18T19:06:40.100Z,2.23
2023-02-18T19:09:10.639Z,2.21
2023-02-18T19:11:39.149Z,2.19
2023-02-18T19:14:07.360Z,2.17
2023-02-18T19:16:42.739Z,2.17
2023-02-18T19:19:12.040Z,2.12
2023-02-18T19:21:42.101Z,2.13
2023-02-18T19:24:10.386Z,2.11
2023-02-18T19:26:38.628Z,2.09
2023-02-18T19:29:06.888Z,2.08
2023-02-18T19:31:36.655Z,2.06
2023-02-18T19:34:05.435Z,2.00
2023-02-18T19:36:33.952Z,1.99
2023-02-18T19:39:03.211Z,1.99
2023-02-18T19:41:31.717Z,1.95
2023-02-18T19:43:59.997Z,1.91
2023-02-18T19:46:28.496Z,1.92
2023-02-18T19:48:58.233Z,1.90
2023-02-18T19:51:26.976Z,1.88
2023-02-18T19:53:56.205Z,1.82
2023-02-18T19:56:25.213Z,1.85
2023-02-18T19:58:56.551Z,1.84
2023-02-18T20:01:24.935Z,1.81
2023-02-18T20:03:53.845Z,1.78
2023-02-18T20:06:23.736Z,1.77
2023-02-18T20:08:54.811Z,1.76
2023-02-18T20:11:23.399Z,1.73
2023-02-18T20:13:51.613Z,1.71
2023-02-18T20:16:20.053Z,1.70
2023-02-18T20:18:48.381Z,1.68
2023-02-18T20:21:16.724Z,1.67
2023-02-18T20:23:46.458Z,1.67
2023-02-18T20:26:15.918Z,1.68
2023-02-18T20:28:44.551Z,1.65
2023-02-18T20:31:14.655Z,1.63
2023-02-18T20:33:44.808Z,1.63
2023-02-18T20:36:15.116Z,1.60
2023-02-18T20:38:45.403Z,1.56
2023-02-18T20:41:17.638Z,1.53
2023-02-18T20:43:46.354Z,1.50
2023-02-18T20:46:17.853Z,1.48
2023-02-18T20:48:48.246Z,1.46
2023-02-18T20:51:19.090Z,1.41
2023-02-18T20:53:49.990Z,1.34
2023-02-18T20:56:20.285Z,1.36
2023-02-18T20:58:52.183Z,1.35
2023-02-18T21:01:20.880Z,1.31
2023-02-18T21:03:49.837Z,1.34
2023-02-18T21:06:21.126Z,1.31
2023-02-18T21:08:52.263Z,1.33
2023-02-18T21:11:23.451Z,1.29
2023-02-18T21:13:53.923Z,1.26
2023-02-18T21:16:23.286Z,1.23
2023-02-18T21:18:51.946Z,1.20
2023-02-18T21:21:21.100Z,1.19
2023-02-18T21:23:51.536Z,1.17
2023-02-18T21:26:22.560Z,1.16
2023-02-18T21:28:52.913Z,1.15
2023-02-18T21:31:23.180Z,1.12
2023-02-18T21:33:51.788Z,1.13
2023-02-18T21:36:20.384Z,1.09
2023-02-18T21:38:55.411Z,1.10
2023-02-18T21:41:24.165Z,1.09
2023-02-18T21:43:52.966Z,1.08
2023-02-18T21:46:24.417Z,1.09
2023-02-18T21:49:07.069Z,1.09
2023-02-18T21:51:56.322Z,1.10
2023-02-18T21:54:29.607Z,1.08
2023-02-18T21:56:59.408Z,1.10
2023-02-18T21:59:29.358Z,1.11
2023-02-18T22:02:00.158Z,1.08
2023-02-18T22:04:29.820Z,1.08
2023-02-18T22:06:58.513Z,1.05
2023-02-18T22:09:35.090Z,1.06
2023-02-18T22:12:04.749Z,1.04
2023-02-18T22:14:33.233Z,1.02
2023-02-18T22:17:01.559Z,0.98
2023-02-18T22:19:29.797Z,0.95
2023-02-18T22:21:58.881Z,0.93
2023-02-18T22:24:28.898Z,0.91
2023-02-18T22:26:57.171Z,0.87
2023-02-18T22:29:26.484Z,0.86
2023-02-18T22:31:54.793Z,0.84
2023-02-18T22:34:25.085Z,0.81
2023-02-18T22:36:53.397Z,0.80
2023-02-18T22:39:21.680Z,0.78
2023-02-18T22:41:52.508Z,0.77
2023-02-18T22:44:20.800Z,0.75
2023-02-18T22:46:49.265Z,0.73
2023-02-18T22:49:17.919Z,0.70
2023-02-18T22:51:46.467Z,0.66
2023-02-18T22:54:17.847Z,0.65
2023-02-18T22:56:47.125Z,0.62
2023-02-18T22:59:19.543Z,0.60
2023-02-18T23:01:50.594Z,0.60
2023-02-18T23:04:20.828Z,0.58
2023-02-18T23:06:49.406Z,0.57
2023-02-18T23:09:40.441Z,0.54
2023-02-18T23:12:08.804Z,0.52
2023-02-18T23:14:38.507Z,0.49
2023-02-18T23:17:18.081Z,0.49
2023-02-18T23:19:48.040Z,0.47
2023-02-18T23:22:18.866Z,0.46
2023-02-18T23:24:49.578Z,0.45
2023-02-18T23:27:22.567Z,0.43
2023-02-18T23:29:55.193Z,0.40
2023-02-18T23:32:24.691Z,0.40
2023-02-18T23:34:53.130Z,0.40
2023-02-18T23:37:43.849Z,0.37
2023-02-18T23:40:14.953Z,0.33
2023-02-18T23:42:44.067Z,0.32
2023-02-18T23:45:13.711Z,0.30
2023-02-18T23:47:41.933Z,0.28
2023-02-18T23:50:11.960Z,0.26
2023-02-18T23:52:40.091Z,0.25
2023-02-18T23:55:08.615Z,0.25
2023-02-18T23:57:37.111Z,0.24
